createdAt,value
2022-12-15T00:00:02.307Z,27.40
2022-12-15T00:01:02.344Z,27.50
2022-12-15T00:02:02.260Z,28.50
2022-12-15T00:03:02.392Z,28.70
2022-12-15T00:04:02.462Z,29.00
2022-12-15T00:05:02.266Z,28.60
2022-12-15T00:06:02.246Z,27.00
2022-12-15T00:07:02.281Z,28.30
2022-12-15T00:08:02.216Z,27.80
2022-12-15T00:09:02.183Z,27.70
2022-12-15T00:10:02.174Z,27.40
2022-12-15T00:11:02.162Z,26.10
2022-12-15T00:12:02.153Z,27.40
2022-12-15T00:13:02.162Z,26.50
2022-12-15T00:14:02.130Z,28.20
2022-12-15T00:15:02.121Z,25.50
2022-12-15T00:16:02.135Z,26.40
2022-12-15T00:17:02.103Z,25.50
2022-12-15T00:18:02.119Z,26.80
2022-12-15T00:19:02.082Z,26.00
2022-12-15T00:20:02.066Z,26.00
2022-12-15T00:21:02.062Z,27.40
2022-12-15T00:22:02.041Z,26.30
2022-12-15T00:23:02.055Z,26.90
2022-12-15T00:24:02.040Z,26.60
2022-12-15T00:25:02.017Z,26.20
2022-12-15T00:26:02.004Z,25.80
2022-12-15T00:27:02.002Z,27.40
2022-12-15T00:28:02.001Z,25.70
2022-12-15T00:29:01.968Z,26.40
2022-12-15T00:30:01.959Z,25.50
2022-12-15T00:31:02.657Z,26.40
2022-12-15T00:32:01.986Z,26.80
2022-12-15T00:33:01.949Z,26.20
2022-12-15T00:34:01.935Z,25.40
2022-12-15T00:35:01.914Z,25.60
2022-12-15T00:36:01.891Z,25.20
2022-12-15T00:37:01.882Z,25.70
2022-12-15T00:38:01.889Z,25.70
2022-12-15T00:39:03.951Z,25.20
2022-12-15T00:40:01.841Z,26.20
2022-12-15T00:41:01.860Z,26.70
2022-12-15T00:42:01.843Z,26.00
2022-12-15T00:43:01.839Z,25.80
2022-12-15T00:44:01.798Z,25.90
2022-12-15T00:45:01.813Z,26.20
2022-12-15T00:46:01.866Z,26.40
2022-12-15T00:47:01.850Z,25.30
2022-12-15T00:48:01.800Z,25.90
2022-12-15T00:49:01.759Z,25.60
2022-12-15T00:50:01.804Z,26.20
2022-12-15T00:51:01.729Z,25.70
2022-12-15T00:52:01.716Z,25.30
2022-12-15T00:53:01.725Z,25.80
2022-12-15T00:54:01.690Z,24.80
2022-12-15T00:55:01.717Z,26.00
2022-12-15T00:56:01.669Z,25.50
2022-12-15T00:57:01.662Z,26.80
2022-12-15T00:58:01.671Z,25.30
2022-12-15T00:59:01.639Z,24.30
2022-12-15T01:00:01.635Z,25.20
2022-12-15T01:01:01.621Z,26.10
2022-12-15T01:02:01.696Z,26.20
2022-12-15T01:03:01.867Z,26.10
2022-12-15T01:04:01.610Z,25.90
2022-12-15T01:05:01.601Z,25.80
2022-12-15T01:06:01.566Z,27.10
2022-12-15T01:07:01.556Z,26.20
2022-12-15T01:08:01.577Z,26.10
2022-12-15T01:09:01.533Z,26.10
2022-12-15T01:10:01.520Z,24.70
2022-12-15T01:11:01.530Z,25.20
2022-12-15T01:12:01.520Z,25.60
2022-12-15T01:13:01.502Z,25.70
2022-12-15T01:14:01.481Z,25.30
2022-12-15T01:15:01.461Z,25.60
2022-12-15T01:16:01.585Z,25.20
2022-12-15T01:17:01.437Z,24.80
2022-12-15T01:18:01.458Z,25.00
2022-12-15T01:19:01.426Z,25.40
2022-12-15T01:20:01.415Z,25.10
2022-12-15T01:21:01.404Z,24.70
2022-12-15T01:22:01.408Z,24.90
2022-12-15T01:23:01.442Z,23.90
2022-12-15T01:24:01.376Z,24.20
2022-12-15T01:25:01.352Z,23.70
2022-12-15T01:26:01.346Z,24.40
2022-12-15T01:27:01.331Z,24.10
2022-12-15T01:28:01.345Z,24.60
2022-12-15T01:29:01.307Z,24.00
2022-12-15T01:30:01.301Z,23.70
2022-12-15T01:31:01.338Z,24.90
2022-12-15T01:32:01.316Z,24.50
2022-12-15T01:33:01.284Z,24.60
2022-12-15T01:34:01.279Z,25.00
2022-12-15T01:35:01.312Z,25.10
2022-12-15T01:36:01.244Z,24.50
2022-12-15T01:37:01.249Z,24.30
2022-12-15T01:38:01.215Z,23.30
2022-12-15T01:39:01.240Z,22.60
2022-12-15T01:40:01.213Z,23.20
2022-12-15T01:41:01.176Z,23.60
2022-12-15T01:42:01.178Z,23.00
2022-12-15T01:43:01.165Z,23.30
2022-12-15T01:44:01.170Z,23.40
2022-12-15T01:45:01.147Z,22.10
2022-12-15T01:46:01.123Z,22.80
2022-12-15T01:47:01.245Z,22.20
2022-12-15T01:48:01.109Z,23.40
2022-12-15T01:49:01.122Z,23.70
2022-12-15T01:50:01.087Z,23.30
2022-12-15T01:51:01.078Z,24.10
2022-12-15T01:52:01.074Z,24.00
2022-12-15T01:53:01.052Z,23.00
2022-12-15T01:54:01.060Z,24.50
2022-12-15T01:55:01.031Z,22.70
2022-12-15T01:56:01.083Z,22.80
2022-12-15T01:57:01.008Z,22.30
2022-12-15T01:58:00.996Z,23.70
2022-12-15T01:59:01.014Z,22.80
2022-12-15T02:00:00.975Z,23.50
2022-12-15T02:01:01.015Z,23.20
2022-12-15T02:02:01.040Z,23.20
2022-12-15T02:03:01.138Z,23.40
2022-12-15T02:04:00.931Z,22.80
2022-12-15T02:05:00.943Z,23.20
2022-12-15T02:06:00.905Z,22.60
2022-12-15T02:07:00.900Z,23.80
2022-12-15T02:08:00.886Z,22.70
2022-12-15T02:09:00.880Z,22.30
2022-12-15T02:10:00.894Z,23.10
2022-12-15T02:11:00.861Z,22.70
2022-12-15T02:12:00.848Z,21.50
2022-12-15T02:13:00.832Z,22.60
2022-12-15T02:14:00.834Z,22.10
2022-12-15T02:15:00.854Z,22.20
2022-12-15T02:16:00.854Z,21.60
2022-12-15T02:17:00.795Z,22.40
2022-12-15T02:18:00.783Z,21.60
2022-12-15T02:19:00.776Z,22.90
2022-12-15T02:20:00.760Z,22.30
2022-12-15T02:21:01.130Z,22.50
2022-12-15T02:22:00.734Z,22.00
2022-12-15T02:23:00.728Z,21.60
2022-12-15T02:24:00.718Z,22.20
2022-12-15T02:25:00.711Z,21.00
2022-12-15T02:26:00.694Z,22.60
2022-12-15T02:27:00.715Z,22.00
2022-12-15T02:28:00.679Z,22.70
2022-12-15T02:29:00.666Z,22.60
2022-12-15T02:30:00.650Z,22.90
2022-12-15T02:31:00.645Z,21.50
2022-12-15T02:32:00.722Z,21.60
2022-12-15T02:33:00.642Z,21.50
2022-12-15T02:34:00.613Z,21.60
2022-12-15T02:35:00.600Z,23.10
2022-12-15T02:36:00.626Z,22.40
2022-12-15T02:37:00.584Z,21.20
2022-12-15T02:38:00.596Z,22.50
2022-12-15T02:39:01.473Z,21.80
2022-12-15T02:40:00.541Z,23.60
2022-12-15T02:41:00.533Z,23.80
2022-12-15T02:42:00.557Z,22.10
2022-12-15T02:43:00.516Z,22.00
2022-12-15T02:44:00.523Z,21.20
2022-12-15T02:45:00.492Z,21.70
2022-12-15T02:46:00.525Z,21.70
2022-12-15T02:47:00.481Z,21.50
2022-12-15T02:48:00.456Z,22.40
2022-12-15T02:49:00.446Z,22.70
2022-12-15T02:50:00.457Z,21.90
2022-12-15T02:51:00.456Z,22.00
2022-12-15T02:52:00.412Z,22.60
2022-12-15T02:53:00.405Z,22.20
2022-12-15T02:54:00.411Z,22.60
2022-12-15T02:55:00.405Z,22.20
2022-12-15T02:56:00.371Z,22.00
2022-12-15T02:57:00.375Z,22.20
2022-12-15T02:58:00.369Z,22.20
2022-12-15T02:59:00.347Z,22.20
2022-12-15T03:00:00.326Z,22.70
2022-12-15T03:01:00.397Z,22.00
2022-12-15T03:02:00.550Z,22.40
2022-12-15T03:03:00.545Z,22.20
2022-12-15T03:04:00.285Z,22.20
2022-12-15T03:05:00.316Z,21.40
2022-12-15T03:06:00.261Z,22.50
2022-12-15T03:07:01.396Z,22.70
2022-12-15T03:08:00.240Z,22.40
2022-12-15T03:09:00.233Z,22.90
2022-12-15T03:10:00.224Z,21.40
2022-12-15T03:11:00.207Z,22.40
2022-12-15T03:12:00.203Z,22.10
2022-12-15T03:13:00.206Z,23.00
2022-12-15T03:14:00.177Z,21.80
2022-12-15T03:15:00.165Z,22.00
2022-12-15T03:16:00.216Z,22.60
2022-12-15T03:17:00.222Z,22.30
2022-12-15T03:18:00.142Z,22.10
2022-12-15T03:19:00.246Z,21.30
2022-12-15T03:20:00.160Z,22.10
2022-12-15T03:21:00.108Z,21.50
2022-12-15T03:22:00.129Z,22.10
2022-12-15T03:23:00.080Z,22.30
2022-12-15T03:24:00.109Z,22.30
2022-12-15T03:25:00.068Z,22.30
2022-12-15T03:26:00.044Z,22.90
2022-12-15T03:27:00.033Z,22.40
2022-12-15T03:28:00.029Z,22.40
2022-12-15T03:29:00.006Z,23.00
2022-12-15T03:30:00.026Z,21.70
2022-12-15T03:30:59.985Z,22.10
2022-12-15T03:31:59.993Z,22.80
2022-12-15T03:32:59.966Z,23.10
2022-12-15T03:33:59.962Z,22.40
2022-12-15T03:34:59.944Z,21.60
2022-12-15T03:35:59.981Z,22.70
2022-12-15T03:36:59.923Z,22.50
2022-12-15T03:37:59.926Z,23.30
2022-12-15T03:38:59.911Z,22.50
2022-12-15T03:39:59.895Z,21.20
2022-12-15T03:40:59.877Z,21.80
2022-12-15T03:41:59.904Z,21.80
2022-12-15T03:42:59.856Z,21.70
2022-12-15T03:43:59.851Z,22.30
2022-12-15T03:44:59.836Z,22.10
2022-12-15T03:45:59.849Z,21.90
2022-12-15T03:47:03.163Z,22.80
2022-12-15T03:47:59.843Z,22.00
2022-12-15T03:48:59.793Z,22.30
2022-12-15T03:49:59.784Z,22.40
2022-12-15T03:50:59.771Z,22.00
2022-12-15T03:51:59.766Z,21.40
2022-12-15T03:52:59.748Z,21.70
2022-12-15T03:54:00.115Z,22.40
2022-12-15T03:54:59.723Z,22.00
2022-12-15T03:55:59.719Z,22.00
2022-12-15T03:56:59.704Z,21.40
2022-12-15T03:57:59.700Z,22.90
2022-12-15T03:58:59.687Z,22.00
2022-12-15T03:59:59.713Z,21.30
2022-12-15T04:00:59.700Z,21.60
2022-12-15T04:01:59.879Z,21.70
2022-12-15T04:02:59.840Z,22.00
2022-12-15T04:04:01.294Z,22.00
2022-12-15T04:04:59.619Z,21.10
2022-12-15T04:05:59.629Z,21.20
2022-12-15T04:06:59.594Z,21.30
2022-12-15T04:07:59.600Z,23.00
2022-12-15T04:08:59.576Z,21.70
2022-12-15T04:09:59.562Z,22.30
2022-12-15T04:10:59.559Z,21.90
2022-12-15T04:11:59.576Z,22.30
2022-12-15T04:12:59.533Z,22.50
2022-12-15T04:13:59.519Z,22.90
2022-12-15T04:14:59.512Z,22.30
2022-12-15T04:15:59.498Z,21.80
2022-12-15T04:16:59.636Z,22.50
2022-12-15T04:17:59.511Z,22.10
2022-12-15T04:18:59.471Z,21.90
2022-12-15T04:19:59.454Z,21.70
2022-12-15T04:20:59.451Z,22.40
2022-12-15T04:21:59.433Z,22.10
2022-12-15T04:22:59.426Z,21.50
2022-12-15T04:23:59.449Z,22.30
2022-12-15T04:24:59.405Z,22.70
2022-12-15T04:25:59.390Z,22.90
2022-12-15T04:26:59.382Z,23.20
2022-12-15T04:28:01.707Z,23.50
2022-12-15T04:28:59.388Z,23.50
2022-12-15T04:29:59.344Z,23.80
2022-12-15T04:30:59.374Z,23.50
2022-12-15T04:31:59.323Z,23.50
2022-12-15T04:32:59.323Z,22.80
2022-12-15T04:33:59.304Z,24.10
2022-12-15T04:34:59.328Z,24.20
2022-12-15T04:35:59.280Z,23.80
2022-12-15T04:36:59.292Z,23.40
2022-12-15T04:37:59.257Z,23.90
2022-12-15T04:38:59.252Z,24.30
2022-12-15T04:39:59.241Z,24.70
2022-12-15T04:40:59.255Z,24.40
2022-12-15T04:41:59.215Z,23.40
2022-12-15T04:42:59.208Z,23.80
2022-12-15T04:43:59.212Z,23.80
2022-12-15T04:44:59.193Z,24.00
2022-12-15T04:45:59.244Z,23.00
2022-12-15T04:46:59.175Z,23.20
2022-12-15T04:47:59.212Z,23.00
2022-12-15T04:48:59.160Z,23.90
2022-12-15T04:49:59.142Z,23.30
2022-12-15T04:50:59.189Z,24.20
2022-12-15T04:51:59.149Z,23.90
2022-12-15T04:52:59.126Z,24.40
2022-12-15T04:53:59.106Z,24.50
2022-12-15T04:54:59.082Z,23.10
2022-12-15T04:55:59.111Z,24.20
2022-12-15T04:56:59.059Z,24.60
2022-12-15T04:57:59.043Z,24.80
2022-12-15T04:58:59.036Z,23.70
2022-12-15T04:59:59.150Z,24.70
2022-12-15T05:00:59.160Z,23.80
2022-12-15T05:01:59.097Z,24.50
2022-12-15T05:02:58.992Z,24.60
2022-12-15T05:03:59.022Z,24.30
2022-12-15T05:04:58.970Z,24.40
2022-12-15T05:05:58.974Z,24.80
2022-12-15T05:06:58.950Z,24.50
2022-12-15T05:07:58.931Z,24.50
2022-12-15T05:08:58.924Z,25.10
2022-12-15T05:10:02.947Z,23.90
2022-12-15T05:10:58.919Z,24.80
2022-12-15T05:11:58.898Z,24.00
2022-12-15T05:12:58.875Z,25.20
2022-12-15T05:13:58.871Z,25.80
2022-12-15T05:14:58.856Z,25.60
2022-12-15T05:15:59.009Z,25.20
2022-12-15T05:16:58.856Z,24.40
2022-12-15T05:17:58.828Z,25.50
2022-12-15T05:18:58.813Z,25.10
2022-12-15T05:19:58.809Z,25.70
2022-12-15T05:20:58.821Z,24.90
2022-12-15T05:21:58.784Z,25.40
2022-12-15T05:22:58.767Z,26.00
2022-12-15T05:23:58.761Z,26.30
2022-12-15T05:24:58.750Z,25.30
2022-12-15T05:25:58.779Z,24.60
2022-12-15T05:26:58.723Z,23.70
2022-12-15T05:27:58.723Z,25.70
2022-12-15T05:28:58.701Z,25.20
2022-12-15T05:29:58.701Z,25.00
2022-12-15T05:30:58.765Z,24.70
2022-12-15T05:31:58.672Z,26.50
2022-12-15T05:32:58.660Z,25.40
2022-12-15T05:34:04.745Z,26.20
2022-12-15T05:34:58.647Z,25.30
2022-12-15T05:35:58.657Z,25.50
2022-12-15T05:36:58.622Z,26.20
2022-12-15T05:37:58.609Z,26.80
2022-12-15T05:38:58.595Z,27.30
2022-12-15T05:39:58.589Z,26.80
2022-12-15T05:40:58.574Z,26.90
2022-12-15T05:41:58.599Z,25.40
2022-12-15T05:42:58.550Z,26.40
2022-12-15T05:43:58.543Z,26.50
2022-12-15T05:44:58.529Z,26.30
2022-12-15T05:45:58.541Z,26.80
2022-12-15T05:46:58.504Z,26.30
2022-12-15T05:47:58.527Z,26.50
2022-12-15T05:48:58.485Z,25.50
2022-12-15T05:49:58.477Z,26.80
2022-12-15T05:50:58.463Z,28.20
2022-12-15T05:51:58.465Z,27.60
2022-12-15T05:52:58.443Z,27.10
2022-12-15T05:53:58.462Z,27.20
2022-12-15T05:54:58.421Z,26.90
2022-12-15T05:55:58.416Z,26.20
2022-12-15T05:56:58.399Z,26.90
2022-12-15T05:57:58.387Z,27.00
2022-12-15T05:58:58.409Z,26.40
2022-12-15T05:59:58.400Z,25.40
2022-12-15T06:00:58.355Z,26.60
2022-12-15T06:01:58.423Z,26.20
2022-12-15T06:02:58.384Z,26.90
2022-12-15T06:03:58.323Z,27.00
2022-12-15T06:04:58.368Z,26.80
2022-12-15T06:05:58.505Z,28.30
2022-12-15T06:06:58.293Z,27.50
2022-12-15T06:07:58.275Z,27.10
2022-12-15T06:08:58.275Z,26.80
2022-12-15T06:09:58.261Z,26.80
2022-12-15T06:10:58.242Z,26.90
2022-12-15T06:11:58.265Z,27.90
2022-12-15T06:12:58.251Z,27.80
2022-12-15T06:13:58.216Z,27.20
2022-12-15T06:14:58.203Z,27.80
2022-12-15T06:15:58.251Z,27.60
2022-12-15T06:16:58.242Z,28.20
2022-12-15T06:17:58.205Z,28.00
2022-12-15T06:18:58.182Z,27.50
2022-12-15T06:19:58.153Z,27.80
2022-12-15T06:20:58.186Z,28.70
2022-12-15T06:21:58.142Z,28.00
2022-12-15T06:22:58.114Z,28.20
2022-12-15T06:23:58.136Z,27.60
2022-12-15T06:24:58.095Z,29.40
2022-12-15T06:25:58.088Z,27.50
2022-12-15T06:26:58.069Z,29.00
2022-12-15T06:28:01.716Z,29.20
2022-12-15T06:28:58.050Z,28.40
2022-12-15T06:29:58.097Z,28.70
2022-12-15T06:30:58.068Z,28.30
2022-12-15T06:31:58.033Z,28.30
2022-12-15T06:32:58.002Z,28.80
2022-12-15T06:34:01.999Z,28.90
2022-12-15T06:34:58.010Z,28.20
2022-12-15T06:35:57.976Z,27.60
2022-12-15T06:36:57.961Z,28.30
2022-12-15T06:37:57.955Z,28.40
2022-12-15T06:38:57.946Z,27.90
2022-12-15T06:39:57.932Z,29.40
2022-12-15T06:40:57.949Z,29.20
2022-12-15T06:41:57.915Z,30.30
2022-12-15T06:42:57.894Z,28.60
2022-12-15T06:43:57.894Z,28.00
2022-12-15T06:44:57.871Z,29.20
2022-12-15T06:45:57.867Z,28.50
2022-12-15T06:46:57.930Z,28.40
2022-12-15T06:48:01.333Z,28.80
2022-12-15T06:48:57.831Z,29.70
2022-12-15T06:49:57.823Z,29.60
2022-12-15T06:50:57.806Z,28.90
2022-12-15T06:51:57.802Z,29.30
2022-12-15T06:52:57.810Z,30.40
2022-12-15T06:53:57.775Z,29.50
2022-12-15T06:54:57.787Z,29.70
2022-12-15T06:55:57.754Z,29.70
2022-12-15T06:56:57.745Z,29.70
2022-12-15T06:57:57.741Z,29.60
2022-12-15T06:58:57.744Z,30.20
2022-12-15T06:59:57.714Z,30.10
2022-12-15T07:00:57.702Z,29.90
2022-12-15T07:01:57.856Z,30.90
2022-12-15T07:02:57.864Z,31.00
2022-12-15T07:03:57.857Z,30.30
2022-12-15T07:04:57.684Z,31.10
2022-12-15T07:05:57.650Z,30.40
2022-12-15T07:06:57.633Z,30.80
2022-12-15T07:07:57.773Z,29.80
2022-12-15T07:08:57.619Z,31.40
2022-12-15T07:09:57.599Z,30.90
2022-12-15T07:10:57.978Z,30.00
2022-12-15T07:11:57.583Z,29.80
2022-12-15T07:12:57.570Z,31.30
2022-12-15T07:13:57.583Z,32.60
2022-12-15T07:14:57.550Z,31.80
2022-12-15T07:15:57.564Z,32.10
2022-12-15T07:16:57.549Z,31.60
2022-12-15T07:17:57.512Z,32.10
2022-12-15T07:18:57.505Z,31.00
2022-12-15T07:19:57.492Z,31.60
2022-12-15T07:20:57.484Z,31.90
2022-12-15T07:21:57.511Z,30.70
2022-12-15T07:22:57.460Z,32.40
2022-12-15T07:23:58.230Z,32.00
2022-12-15T07:24:57.443Z,31.00
2022-12-15T07:25:57.429Z,31.40
2022-12-15T07:26:57.421Z,31.80
2022-12-15T07:27:57.435Z,31.70
2022-12-15T07:28:57.400Z,32.20
2022-12-15T07:29:57.394Z,32.90
2022-12-15T07:30:57.378Z,31.90
2022-12-15T07:31:57.436Z,32.70
2022-12-15T07:32:57.354Z,32.30
2022-12-15T07:33:57.360Z,33.00
2022-12-15T07:34:57.338Z,32.60
2022-12-15T07:35:57.324Z,32.50
2022-12-15T07:36:57.310Z,32.90
2022-12-15T07:37:57.291Z,33.30
2022-12-15T07:38:57.317Z,32.20
2022-12-15T07:39:57.275Z,31.80
2022-12-15T07:40:57.267Z,33.30
2022-12-15T07:41:57.251Z,33.30
2022-12-15T07:42:57.248Z,33.60
2022-12-15T07:43:57.230Z,33.50
2022-12-15T07:44:57.258Z,33.00
2022-12-15T07:45:57.237Z,32.90
2022-12-15T07:46:57.201Z,33.60
2022-12-15T07:47:57.188Z,32.80
2022-12-15T07:48:57.180Z,33.70
2022-12-15T07:49:57.197Z,33.60
2022-12-15T07:51:02.762Z,34.60
2022-12-15T07:51:57.146Z,33.80
2022-12-15T07:52:57.137Z,33.60
2022-12-15T07:53:57.123Z,32.90
2022-12-15T07:54:57.118Z,34.80
2022-12-15T07:56:07.364Z,34.20
2022-12-15T07:56:57.107Z,34.30
2022-12-15T07:57:57.078Z,34.90
2022-12-15T07:58:57.075Z,33.90
2022-12-15T07:59:57.094Z,35.10
2022-12-15T08:00:57.076Z,34.20
2022-12-15T08:01:57.218Z,35.10
2022-12-15T08:02:57.247Z,35.00
2022-12-15T08:03:57.074Z,34.70
2022-12-15T08:04:57.024Z,34.60
2022-12-15T08:06:03.641Z,34.50
2022-12-15T08:06:57.011Z,34.70
2022-12-15T08:07:56.971Z,33.20
2022-12-15T08:08:56.964Z,34.20
2022-12-15T08:09:56.950Z,34.90
2022-12-15T08:10:56.936Z,35.40
2022-12-15T08:11:56.952Z,35.00
2022-12-15T08:12:56.915Z,36.30
2022-12-15T08:14:07.767Z,35.90
2022-12-15T08:14:56.900Z,35.60
2022-12-15T08:15:57.064Z,35.70
2022-12-15T08:16:56.959Z,36.00
2022-12-15T08:17:56.866Z,35.70
2022-12-15T08:18:56.846Z,35.10
2022-12-15T08:19:58.920Z,36.90
2022-12-15T08:20:56.825Z,35.80
2022-12-15T08:21:56.839Z,35.90
2022-12-15T08:22:56.802Z,36.60
2022-12-15T08:23:56.794Z,35.60
2022-12-15T08:24:56.781Z,35.40
2022-12-15T08:25:56.775Z,65.20
2022-12-15T08:26:56.795Z,52.90
2022-12-15T08:27:56.783Z,39.00
2022-12-15T08:28:57.118Z,38.50
2022-12-15T08:29:56.737Z,37.40
2022-12-15T08:30:56.740Z,37.90
2022-12-15T08:31:56.809Z,37.30
2022-12-15T08:32:56.731Z,37.00
2022-12-15T08:33:56.689Z,37.40
2022-12-15T08:34:56.672Z,37.00
2022-12-15T08:35:57.378Z,37.40
2022-12-15T08:36:56.680Z,37.90
2022-12-15T08:37:59.854Z,37.00
2022-12-15T08:38:56.657Z,37.50
2022-12-15T08:39:56.622Z,36.30
2022-12-15T08:40:56.616Z,38.10
2022-12-15T08:41:56.602Z,38.40
2022-12-15T08:42:56.586Z,37.70
2022-12-15T08:43:56.609Z,37.20
2022-12-15T08:44:56.568Z,37.30
2022-12-15T08:45:56.591Z,38.40
2022-12-15T08:46:56.540Z,37.60
2022-12-15T08:47:56.542Z,39.90
2022-12-15T08:48:56.525Z,38.50
2022-12-15T08:49:56.536Z,38.30
2022-12-15T08:50:56.500Z,37.60
2022-12-15T08:51:56.495Z,38.80
2022-12-15T08:53:28.960Z,39.20
2022-12-15T08:53:56.504Z,38.50
2022-12-15T08:54:56.577Z,38.60
2022-12-15T08:55:56.457Z,38.40
2022-12-15T08:56:56.445Z,40.20
2022-12-15T08:57:56.507Z,39.70
2022-12-15T08:58:56.424Z,40.20
2022-12-15T08:59:56.459Z,39.80
2022-12-15T09:00:56.494Z,38.50
2022-12-15T09:01:56.517Z,40.00
2022-12-15T09:02:56.395Z,39.10
2022-12-15T09:03:56.434Z,38.50
2022-12-15T09:04:56.368Z,39.20
2022-12-15T09:05:56.416Z,38.80
2022-12-15T09:06:56.407Z,38.60
2022-12-15T09:07:59.354Z,38.40
2022-12-15T09:08:56.326Z,37.20
2022-12-15T09:09:56.294Z,37.50
2022-12-15T09:10:56.355Z,37.40
2022-12-15T09:11:56.342Z,37.80
2022-12-15T09:12:56.309Z,38.60
2022-12-15T09:13:56.280Z,37.50
2022-12-15T09:14:56.308Z,37.50
2022-12-15T09:16:11.856Z,39.20
2022-12-15T09:16:56.426Z,39.30
2022-12-15T09:17:56.213Z,38.60
2022-12-15T09:18:56.207Z,38.10
2022-12-15T09:19:56.273Z,38.70
2022-12-15T09:20:56.181Z,39.70
2022-12-15T09:21:56.208Z,37.90
2022-12-15T09:22:56.184Z,38.70
2022-12-15T09:23:56.139Z,38.80
2022-12-15T09:24:56.133Z,40.20
2022-12-15T09:25:56.119Z,39.20
2022-12-15T09:26:56.200Z,40.10
2022-12-15T09:27:56.115Z,38.60
2022-12-15T09:28:56.089Z,39.30
2022-12-15T09:29:56.074Z,37.90
2022-12-15T09:30:56.107Z,39.40
2022-12-15T09:31:56.052Z,38.90
2022-12-15T09:32:56.065Z,38.40
2022-12-15T09:33:56.029Z,39.70
2022-12-15T09:34:56.030Z,39.50
2022-12-15T09:35:56.008Z,39.30
2022-12-15T09:36:56.010Z,39.40
2022-12-15T09:37:55.989Z,40.10
2022-12-15T09:38:56.007Z,40.10
2022-12-15T09:39:55.964Z,40.60
2022-12-15T09:40:55.958Z,40.60
2022-12-15T09:41:55.946Z,40.00
2022-12-15T09:43:25.816Z,40.40
2022-12-15T09:43:56.632Z,40.10
2022-12-15T09:44:55.937Z,39.30
2022-12-15T09:45:55.932Z,39.80
2022-12-15T09:46:55.890Z,40.00
2022-12-15T09:47:55.878Z,39.10
2022-12-15T09:48:55.869Z,40.40
2022-12-15T09:49:55.880Z,40.80
2022-12-15T09:50:55.848Z,41.00
2022-12-15T09:51:55.829Z,40.10
2022-12-15T09:52:55.822Z,41.20
2022-12-15T09:53:56.730Z,41.60
2022-12-15T09:54:55.884Z,40.80
2022-12-15T09:55:55.788Z,41.70
2022-12-15T09:56:55.778Z,41.50
2022-12-15T09:57:55.766Z,41.10
2022-12-15T09:58:55.757Z,41.30
2022-12-15T09:59:55.777Z,42.10
2022-12-15T10:00:55.898Z,42.60
2022-12-15T10:01:55.777Z,42.50
2022-12-15T10:02:55.934Z,41.90
2022-12-15T10:03:55.769Z,41.40
2022-12-15T10:04:55.706Z,43.10
2022-12-15T10:06:55.678Z,42.70
2022-12-15T10:07:55.654Z,42.00
2022-12-15T10:08:55.643Z,41.80
2022-12-15T10:09:55.629Z,41.90
2022-12-15T10:10:55.623Z,42.50
2022-12-15T10:11:55.635Z,41.90
2022-12-15T10:13:02.022Z,43.30
2022-12-15T10:13:55.593Z,43.30
2022-12-15T10:14:55.578Z,44.30
2022-12-15T10:15:55.634Z,42.10
2022-12-15T10:16:56.013Z,42.10
2022-12-15T10:17:55.553Z,43.20
2022-12-15T10:18:59.372Z,44.30
2022-12-15T10:19:55.542Z,43.40
2022-12-15T10:20:55.518Z,41.60
2022-12-15T10:21:55.509Z,42.70
2022-12-15T10:22:55.528Z,43.40
2022-12-15T10:23:55.546Z,41.70
2022-12-15T10:25:11.621Z,43.20
2022-12-15T10:25:55.461Z,44.00
2022-12-15T10:26:55.453Z,42.10
2022-12-15T10:27:55.457Z,43.00
2022-12-15T10:28:55.428Z,43.70
2022-12-15T10:29:55.467Z,44.00
2022-12-15T10:30:55.436Z,43.70
2022-12-15T10:31:55.389Z,44.80
2022-12-15T10:32:55.406Z,45.30
2022-12-15T10:33:55.374Z,43.20
2022-12-15T10:34:55.394Z,42.50
2022-12-15T10:35:55.351Z,42.40
2022-12-15T10:36:55.344Z,43.20
2022-12-15T10:37:55.358Z,44.70
2022-12-15T10:38:55.323Z,43.80
2022-12-15T10:39:55.302Z,43.30
2022-12-15T10:40:55.296Z,45.30
2022-12-15T10:41:55.282Z,46.30
2022-12-15T10:42:55.274Z,42.60
2022-12-15T10:43:55.277Z,41.30
2022-12-15T10:44:55.252Z,42.60
2022-12-15T10:45:55.288Z,42.10
2022-12-15T10:46:55.242Z,40.80
2022-12-15T10:47:55.212Z,40.00
2022-12-15T10:48:55.229Z,39.50
2022-12-15T10:49:55.194Z,40.00
2022-12-15T10:50:55.185Z,38.70
2022-12-15T10:51:55.172Z,37.70
2022-12-15T10:52:55.160Z,38.00
2022-12-15T10:53:55.171Z,37.00
2022-12-15T10:54:55.135Z,37.20
2022-12-15T10:55:55.122Z,36.60
2022-12-15T10:56:55.141Z,36.10
2022-12-15T10:57:55.097Z,38.70
2022-12-15T10:58:55.124Z,37.20
2022-12-15T10:59:55.081Z,36.60
2022-12-15T11:00:55.136Z,38.50
2022-12-15T11:01:55.260Z,38.00
2022-12-15T11:02:55.220Z,37.30
2022-12-15T11:03:55.336Z,38.30
2022-12-15T11:04:55.047Z,39.00
2022-12-15T11:05:55.011Z,38.10
2022-12-15T11:06:55.006Z,37.10
2022-12-15T11:07:54.990Z,38.00
2022-12-15T11:08:54.981Z,37.80
2022-12-15T11:09:55.030Z,38.00
2022-12-15T11:10:54.953Z,37.00
2022-12-15T11:11:54.948Z,37.80
2022-12-15T11:12:58.578Z,38.40
2022-12-15T11:13:54.953Z,39.20
2022-12-15T11:14:55.052Z,38.20
2022-12-15T11:15:55.216Z,38.60
2022-12-15T11:16:54.887Z,37.70
2022-12-15T11:17:54.890Z,39.70
2022-12-15T11:18:54.869Z,39.80
2022-12-15T11:20:01.929Z,40.10
2022-12-15T11:20:54.869Z,40.70
2022-12-15T11:21:54.844Z,40.00
2022-12-15T11:22:54.858Z,39.50
2022-12-15T11:23:54.836Z,39.40
2022-12-15T11:24:54.794Z,39.00
2022-12-15T11:25:54.816Z,37.80
2022-12-15T11:26:54.778Z,39.60
2022-12-15T11:27:54.811Z,40.20
2022-12-15T11:28:54.754Z,39.70
2022-12-15T11:29:54.746Z,39.60
2022-12-15T11:30:54.755Z,40.20
2022-12-15T11:31:54.732Z,39.20
2022-12-15T11:32:55.084Z,40.00
2022-12-15T11:33:54.714Z,39.50
2022-12-15T11:34:54.686Z,41.00
2022-12-15T11:35:54.703Z,40.80
2022-12-15T11:36:54.664Z,41.40
2022-12-15T11:37:54.660Z,41.60
2022-12-15T11:38:54.710Z,42.40
2022-12-15T11:39:54.634Z,42.60
2022-12-15T11:40:54.646Z,41.70
2022-12-15T11:41:54.614Z,42.20
2022-12-15T11:42:54.846Z,42.10
2022-12-15T11:43:54.633Z,42.70
2022-12-15T11:44:54.576Z,43.70
2022-12-15T11:45:54.605Z,43.50
2022-12-15T11:46:54.554Z,40.80
2022-12-15T11:47:54.549Z,42.30
2022-12-15T11:48:54.540Z,43.20
2022-12-15T11:49:54.529Z,42.40
2022-12-15T11:50:54.508Z,43.20
2022-12-15T11:51:54.520Z,42.70
2022-12-15T11:52:54.526Z,42.70
2022-12-15T11:53:54.480Z,43.20
2022-12-15T11:54:54.480Z,41.10
2022-12-15T11:55:54.460Z,43.20
2022-12-15T11:56:54.473Z,42.30
2022-12-15T11:57:54.435Z,41.50
2022-12-15T11:58:54.421Z,41.50
2022-12-15T11:59:54.414Z,42.00
2022-12-15T12:00:54.399Z,41.30
2022-12-15T12:02:02.434Z,42.80
2022-12-15T12:02:54.452Z,43.10
2022-12-15T12:03:54.370Z,43.80
2022-12-15T12:04:54.352Z,41.50
2022-12-15T12:05:54.348Z,42.30
2022-12-15T12:06:54.330Z,42.00
2022-12-15T12:07:54.369Z,41.40
2022-12-15T12:08:54.321Z,42.20
2022-12-15T12:09:54.298Z,41.60
2022-12-15T12:10:54.325Z,41.70
2022-12-15T12:11:54.276Z,42.10
2022-12-15T12:12:54.269Z,42.40
2022-12-15T12:13:54.280Z,41.90
2022-12-15T12:14:54.253Z,42.90
2022-12-15T12:15:54.239Z,41.40
2022-12-15T12:16:54.221Z,42.90
2022-12-15T12:17:54.210Z,43.40
2022-12-15T12:18:54.289Z,42.70
2022-12-15T12:19:54.185Z,42.30
2022-12-15T12:20:54.230Z,41.10
2022-12-15T12:21:54.163Z,41.40
2022-12-15T12:22:54.161Z,42.80
2022-12-15T12:23:54.165Z,41.50
2022-12-15T12:24:54.137Z,42.20
2022-12-15T12:25:55.825Z,40.90
2022-12-15T12:26:54.166Z,41.80
2022-12-15T12:27:54.094Z,41.70
2022-12-15T12:28:54.114Z,41.50
2022-12-15T12:29:54.071Z,40.90
2022-12-15T12:30:54.065Z,39.80
2022-12-15T12:31:57.710Z,40.20
2022-12-15T12:32:54.187Z,40.70
2022-12-15T12:33:54.028Z,41.80
2022-12-15T12:34:54.044Z,40.60
2022-12-15T12:35:54.008Z,40.10
2022-12-15T12:36:54.041Z,40.90
2022-12-15T12:37:58.114Z,41.30
2022-12-15T12:38:53.980Z,39.90
2022-12-15T12:39:53.977Z,40.70
2022-12-15T12:40:53.951Z,40.80
2022-12-15T12:41:53.935Z,40.20
2022-12-15T12:42:53.939Z,41.30
2022-12-15T12:43:53.913Z,40.70
2022-12-15T12:44:53.968Z,41.50
2022-12-15T12:45:53.890Z,40.60
2022-12-15T12:46:53.883Z,39.80
2022-12-15T12:47:53.868Z,41.60
2022-12-15T12:48:53.859Z,41.00
2022-12-15T12:49:53.866Z,40.00
2022-12-15T12:50:53.838Z,40.00
2022-12-15T12:51:53.826Z,41.30
2022-12-15T12:52:53.823Z,39.80